Time;durP1;ratioP1;P1;durP2;ratioP2;P2;SDS_P1;SDS_P2;PMS_P1;PMS_P2;Temp;Humidity;BMP_temperature;BMP_pressure;BME280_temperature;BME280_humidity;BME280_pressure;Samples;Min_cycle;Max_cycle;Signal;HPM_P1;HPM_P2
2023/07/17 00:01:50;;;;;;;3.67;2.78;;;26.00;99.90;;;;;;4941608;28;20653;-75
2023/07/17 00:04:17;;;;;;;3.25;3.00;;;25.90;99.90;;;;;;4939072;28;20229;-75
2023/07/17 00:06:46;;;;;;;4.53;3.45;;;25.90;99.90;;;;;;4936914;28;20238;-74
2023/07/17 00:09:13;;;;;;;3.38;2.92;;;25.90;99.90;;;;;;4941698;28;20206;-75
2023/07/17 00:11:40;;;;;;;3.72;3.20;;;25.90;99.90;;;;;;4940960;28;20226;-75
2023/07/17 00:14:07;;;;;;;3.00;2.70;;;25.80;99.90;;;;;;4940990;28;20301;-75
2023/07/17 00:16:34;;;;;;;4.65;3.40;;;25.80;99.90;;;;;;4940206;28;20194;-76
2023/07/17 00:19:01;;;;;;;3.45;3.15;;;25.80;99.90;;;;;;4938536;28;20198;-75
2023/07/17 00:21:27;;;;;;;4.10;3.22;;;25.80;99.90;;;;;;4939179;28;20325;-75
2023/07/17 00:23:57;;;;;;;4.68;3.17;;;25.70;99.90;;;;;;4943889;28;20290;-75
2023/07/17 00:26:24;;;;;;;3.00;2.80;;;25.70;99.90;;;;;;4942731;28;20631;-75
2023/07/17 00:28:51;;;;;;;3.25;2.95;;;25.60;99.90;;;;;;4941888;28;20766;-75
2023/07/17 00:31:18;;;;;;;3.35;3.05;;;25.50;99.90;;;;;;4937846;28;20254;-75
2023/07/17 00:33:45;;;;;;;3.22;2.92;;;25.50;99.90;;;;;;4940272;28;20282;-75
2023/07/17 00:36:12;;;;;;;2.88;2.67;;;25.50;99.90;;;;;;4942437;28;20528;-74
2023/07/17 00:38:38;;;;;;;4.60;2.80;;;25.50;99.90;;;;;;4946546;28;20297;-74
2023/07/17 00:41:07;;;;;;;3.80;3.50;;;25.50;99.90;;;;;;4939929;28;20226;-75
2023/07/17 00:43:34;;;;;;;3.33;3.03;;;25.50;99.90;;;;;;4938748;28;20882;-74
2023/07/17 00:46:00;;;;;;;4.15;3.28;;;25.50;99.90;;;;;;4942444;28;20294;-75
2023/07/17 00:48:27;;;;;;;3.60;3.03;;;25.50;99.90;;;;;;4943749;28;20302;-75
2023/07/17 00:50:54;;;;;;;3.67;3.10;;;25.60;99.90;;;;;;4943986;28;20289;-75
2023/07/17 00:53:21;;;;;;;3.38;2.97;;;25.50;99.90;;;;;;4940135;28;20789;-74
2023/07/17 00:55:49;;;;;;;3.42;3.13;;;25.50;99.90;;;;;;4939125;28;20234;-75
2023/07/17 00:58:18;;;;;;;3.40;3.10;;;25.40;99.90;;;;;;4939161;28;20204;-75
2023/07/17 01:00:45;;;;;;;3.55;3.25;;;25.40;99.90;;;;;;4942151;28;20937;-75
2023/07/17 01:03:13;;;;;;;3.65;3.35;;;25.40;99.90;;;;;;4940449;28;20647;-75
2023/07/17 01:05:40;;;;;;;3.30;3.00;;;25.40;99.90;;;;;;4941870;28;20268;-73
2023/07/17 01:08:07;;;;;;;3.38;3.08;;;25.30;99.90;;;;;;4938432;28;20678;-75
2023/07/17 01:10:34;;;;;;;3.25;2.95;;;25.30;99.90;;;;;;4939183;28;20336;-75
2023/07/17 01:13:01;;;;;;;3.17;2.88;;;25.30;99.90;;;;;;4941764;28;20230;-75
2023/07/17 01:15:29;;;;;;;3.78;3.35;;;25.30;99.90;;;;;;4943889;28;20214;-75
2023/07/17 01:17:56;;;;;;;3.70;3.30;;;25.20;99.90;;;;;;4939032;28;20306;-74
2023/07/17 01:20:23;;;;;;;3.35;3.08;;;25.20;99.90;;;;;;4938610;28;20318;-75
2023/07/17 01:22:56;;;;;;;3.75;3.42;;;25.20;99.90;;;;;;4937820;28;20231;-74
2023/07/17 01:25:23;;;;;;;3.72;3.42;;;25.20;99.90;;;;;;4941866;28;20277;-77
2023/07/17 01:27:49;;;;;;;3.97;3.63;;;25.20;99.90;;;;;;4939253;28;20262;-76
2023/07/17 01:30:17;;;;;;;3.72;3.42;;;25.20;99.90;;;;;;4941707;28;20253;-75
2023/07/17 01:32:43;;;;;;;5.28;3.70;;;25.20;99.90;;;;;;4937789;28;20665;-75
2023/07/17 01:35:10;;;;;;;4.65;3.38;;;25.20;99.90;;;;;;4940148;28;20297;-76
2023/07/17 01:37:37;;;;;;;4.18;3.65;;;25.20;99.90;;;;;;4942642;28;20226;-75
2023/07/17 01:40:09;;;;;;;3.90;3.50;;;25.20;99.90;;;;;;4939977;28;20753;-75
2023/07/17 01:42:36;;;;;;;4.13;3.70;;;25.10;99.90;;;;;;4936477;28;20205;-74
2023/07/17 01:45:03;;;;;;;4.05;3.50;;;25.20;99.90;;;;;;4939871;28;20677;-75
2023/07/17 01:47:30;;;;;;;4.45;3.45;;;25.10;99.90;;;;;;4936603;28;20198;-74
2023/07/17 01:49:57;;;;;;;4.50;3.42;;;25.10;99.90;;;;;;4942700;28;20769;-74
2023/07/17 01:52:24;;;;;;;3.47;3.17;;;25.20;99.90;;;;;;4939706;28;20277;-75
2023/07/17 01:54:51;;;;;;;4.40;3.42;;;25.10;99.90;;;;;;4937259;28;20309;-75
2023/07/17 01:57:19;;;;;;;3.28;2.97;;;25.00;99.90;;;;;;4940993;28;20230;-75
2023/07/17 01:59:46;;;;;;;3.70;3.17;;;25.00;99.90;;;;;;4941257;28;20304;-75
2023/07/17 02:02:13;;;;;;;3.88;3.45;;;25.00;99.90;;;;;;4936684;28;20317;-75
2023/07/17 02:04:40;;;;;;;3.80;3.50;;;24.90;99.90;;;;;;4943434;28;20238;-75
2023/07/17 02:07:07;;;;;;;4.30;3.40;;;24.90;99.90;;;;;;4941115;28;20230;-75
2023/07/17 02:09:34;;;;;;;3.70;3.40;;;24.90;99.90;;;;;;4935184;28;20240;-75
2023/07/17 02:12:01;;;;;;;4.90;3.60;;;24.90;99.90;;;;;;4943581;28;20229;-75
2023/07/17 02:14:29;;;;;;;3.95;3.28;;;24.80;99.90;;;;;;4942645;28;20277;-76
2023/07/17 02:16:57;;;;;;;4.90;3.42;;;24.80;99.90;;;;;;4939914;28;20270;-75
2023/07/17 02:19:24;;;;;;;3.85;3.55;;;24.80;99.90;;;;;;4937255;28;20210;-74
2023/07/17 02:21:51;;;;;;;4.22;3.15;;;24.80;99.90;;;;;;4936800;28;20309;-75
2023/07/17 02:24:19;;;;;;;3.25;2.95;;;24.80;99.90;;;;;;4935345;28;20269;-74
2023/07/17 02:26:46;;;;;;;4.22;3.70;;;24.80;99.90;;;;;;4939726;28;20206;-75
2023/07/17 02:29:13;;;;;;;6.15;4.28;;;24.80;99.90;;;;;;4937705;28;20294;-75
2023/07/17 02:31:41;;;;;;;5.43;3.97;;;24.80;99.90;;;;;;4941927;28;20316;-75
2023/07/17 02:34:08;;;;;;;4.80;4.07;;;24.80;99.90;;;;;;4936863;28;20218;-74
2023/07/17 02:36:37;;;;;;;4.18;3.80;;;24.80;99.90;;;;;;4940820;28;20226;-76
2023/07/17 02:39:05;;;;;;;6.03;4.35;;;24.90;99.90;;;;;;4940695;28;20202;-75
2023/07/17 02:41:32;;;;;;;4.20;3.80;;;24.90;99.90;;;;;;4941015;28;20234;-74
2023/07/17 02:43:58;;;;;;;4.70;4.00;;;24.90;99.90;;;;;;5043619;23;20230;-74
2023/07/17 02:46:26;;;;;;;4.95;3.85;;;24.80;99.90;;;;;;4958538;28;20261;-74
2023/07/17 02:48:54;;;;;;;4.15;3.75;;;24.80;99.90;;;;;;4963093;28;20229;-75
2023/07/17 02:51:21;;;;;;;3.72;3.42;;;24.70;99.90;;;;;;4965739;28;20225;-75
2023/07/17 02:53:48;;;;;;;3.75;3.40;;;24.60;99.90;;;;;;4962698;28;20260;-74
2023/07/17 02:56:15;;;;;;;4.53;3.40;;;24.60;99.90;;;;;;4960993;28;20221;-75
2023/07/17 02:58:43;;;;;;;5.30;3.88;;;24.50;99.90;;;;;;4965558;28;20234;-74
2023/07/17 03:01:10;;;;;;;3.75;3.45;;;24.50;99.90;;;;;;4966576;28;20400;-74
2023/07/17 03:03:37;;;;;;;4.35;3.95;;;24.40;99.90;;;;;;4961538;28;20848;-74
2023/07/17 03:06:06;;;;;;;4.28;3.63;;;24.40;99.90;;;;;;4964372;28;20205;-74
2023/07/17 03:08:33;;;;;;;3.90;3.58;;;24.40;99.90;;;;;;4964046;28;20203;-74
2023/07/17 03:11:03;;;;;;;4.00;3.70;;;24.40;99.90;;;;;;4959966;28;20213;-74
2023/07/17 03:13:30;;;;;;;3.53;3.17;;;24.40;99.90;;;;;;4964633;28;20226;-74
2023/07/17 03:15:58;;;;;;;3.60;3.28;;;24.40;99.90;;;;;;4965441;28;20268;-74
2023/07/17 03:18:25;;;;;;;5.50;3.95;;;24.40;99.90;;;;;;4959337;28;20202;-74
2023/07/17 03:20:53;;;;;;;4.75;4.32;;;24.40;99.90;;;;;;4961760;28;20206;-74
2023/07/17 03:23:21;;;;;;;4.28;3.88;;;24.40;99.90;;;;;;4961418;28;20252;-74
2023/07/17 03:25:48;;;;;;;4.15;3.85;;;24.40;99.90;;;;;;4964014;28;20225;-75
2023/07/17 03:28:15;;;;;;;4.70;3.70;;;24.40;99.90;;;;;;4961641;28;20233;-74
2023/07/17 03:30:42;;;;;;;3.75;3.45;;;24.40;99.90;;;;;;4961437;28;20272;-74
2023/07/17 03:33:09;;;;;;;4.10;3.75;;;24.40;99.90;;;;;;4959061;28;20290;-74
2023/07/17 03:35:36;;;;;;;5.65;3.88;;;24.40;99.90;;;;;;4960812;28;20853;-74
2023/07/17 03:38:03;;;;;;;6.18;3.70;;;24.40;99.90;;;;;;4965061;28;20237;-75
2023/07/17 03:40:32;;;;;;;4.43;4.03;;;24.40;99.90;;;;;;4965327;28;20756;-74
2023/07/17 03:42:58;;;;;;;5.55;3.58;;;24.50;99.90;;;;;;4958086;28;20293;-74
2023/07/17 03:45:25;;;;;;;4.03;3.63;;;24.50;99.90;;;;;;4968587;28;20206;-75
2023/07/17 03:47:52;;;;;;;3.80;3.40;;;24.50;99.90;;;;;;4970615;28;20701;-74
2023/07/17 03:50:19;;;;;;;4.05;3.65;;;24.40;99.90;;;;;;4961989;28;20590;-74
2023/07/17 03:52:46;;;;;;;4.00;3.70;;;24.40;99.90;;;;;;4962590;28;21557;-74
2023/07/17 03:55:13;;;;;;;3.90;3.60;;;24.30;99.90;;;;;;4962969;28;20249;-75
2023/07/17 03:57:42;;;;;;;4.00;3.47;;;24.30;99.90;;;;;;4958601;28;20768;-74
2023/07/17 04:00:13;;;;;;;4.35;3.95;;;24.20;99.90;;;;;;4962182;28;20734;-74
2023/07/17 04:02:40;;;;;;;4.10;3.72;;;24.30;99.90;;;;;;4961886;28;20284;-74
2023/07/17 04:05:07;;;;;;;4.15;3.65;;;24.30;99.90;;;;;;4963164;28;20669;-74
2023/07/17 04:07:34;;;;;;;4.38;3.83;;;24.30;99.90;;;;;;4963379;28;20210;-74
2023/07/17 04:10:01;;;;;;;5.13;4.10;;;24.30;99.90;;;;;;4960604;28;20243;-74
2023/07/17 04:12:28;;;;;;;6.68;4.32;;;24.30;99.90;;;;;;4964872;28;20237;-74
2023/07/17 04:14:57;;;;;;;8.93;4.40;;;24.30;99.90;;;;;;4962647;28;20248;-74
2023/07/17 04:17:24;;;;;;;4.63;3.50;;;24.40;99.90;;;;;;4966011;28;20292;-74
2023/07/17 04:19:51;;;;;;;4.55;3.75;;;24.40;99.90;;;;;;4959944;28;20205;-74
2023/07/17 04:22:17;;;;;;;4.32;3.85;;;24.50;99.90;;;;;;4959310;28;20639;-74
2023/07/17 04:24:44;;;;;;;4.75;3.95;;;24.40;99.90;;;;;;4959101;28;20252;-74
2023/07/17 04:27:11;;;;;;;3.90;3.50;;;24.40;99.90;;;;;;4962669;28;20198;-74
2023/07/17 04:29:39;;;;;;;3.75;3.45;;;24.40;99.90;;;;;;4961320;28;20290;-74
2023/07/17 04:32:08;;;;;;;7.40;4.05;;;24.40;99.90;;;;;;4960062;28;20229;-74
2023/07/17 04:34:35;;;;;;;4.03;3.65;;;24.50;99.90;;;;;;4959389;28;20731;-75
2023/07/17 04:37:02;;;;;;;4.63;3.90;;;24.50;99.90;;;;;;4961285;28;20201;-75
2023/07/17 04:39:29;;;;;;;4.20;3.70;;;24.50;99.90;;;;;;4958340;28;20508;-75
2023/07/17 04:41:56;;;;;;;4.00;3.67;;;24.50;99.90;;;;;;4961704;28;20707;-73
2023/07/17 04:44:23;;;;;;;4.05;3.75;;;24.60;99.90;;;;;;4958072;28;20261;-73
2023/07/17 04:46:50;;;;;;;4.63;4.00;;;24.70;99.90;;;;;;4958646;28;20245;-73
2023/07/17 04:49:18;;;;;;;4.15;3.75;;;24.90;99.90;;;;;;4956661;28;20288;-73
2023/07/17 04:51:45;;;;;;;4.15;3.63;;;25.10;99.90;;;;;;4961068;28;20762;-73
2023/07/17 04:54:12;;;;;;;4.35;3.95;;;25.20;99.90;;;;;;4961043;28;20244;-74
2023/07/17 04:56:39;;;;;;;5.30;4.20;;;25.40;99.90;;;;;;4952794;28;20282;-75
2023/07/17 04:59:06;;;;;;;4.28;3.88;;;25.40;99.90;;;;;;4954959;28;20234;-74
2023/07/17 05:01:33;;;;;;;5.35;3.95;;;25.30;99.90;;;;;;4959517;28;20256;-74
2023/07/17 05:04:01;;;;;;;4.25;3.78;;;25.20;99.90;;;;;;4959127;28;20307;-74
2023/07/17 05:06:30;;;;;;;4.38;4.03;;;25.20;99.90;;;;;;4938622;28;20234;-73
2023/07/17 05:08:57;;;;;;;4.28;3.90;;;25.30;99.90;;;;;;4958683;28;20706;-73
2023/07/17 05:11:24;;;;;;;4.10;3.80;;;25.20;99.90;;;;;;4954473;28;20209;-73
2023/07/17 05:13:50;;;;;;;6.22;4.40;;;25.10;99.90;;;;;;4957644;28;20563;-73
2023/07/17 05:16:17;;;;;;;5.00;4.50;;;25.00;99.90;;;;;;4960105;28;20313;-73
2023/07/17 05:18:44;;;;;;;6.60;4.28;;;25.00;99.90;;;;;;4961636;28;20257;-73
2023/07/17 05:21:11;;;;;;;5.22;4.25;;;25.00;99.90;;;;;;4960579;28;20205;-74
2023/07/17 05:23:39;;;;;;;5.15;4.63;;;25.10;99.90;;;;;;4959029;28;20615;-73
2023/07/17 05:26:06;;;;;;;5.72;4.55;;;25.00;99.90;;;;;;4957367;28;20640;-73
2023/07/17 05:28:35;;;;;;;4.75;4.35;;;25.00;99.90;;;;;;4959348;28;20233;-73
2023/07/17 05:31:02;;;;;;;4.90;4.35;;;25.00;99.90;;;;;;4957132;28;20310;-73
2023/07/17 05:33:29;;;;;;;6.13;4.60;;;25.00;99.90;;;;;;4959177;28;20229;-74
2023/07/17 05:35:56;;;;;;;5.15;4.65;;;25.00;99.90;;;;;;4957070;28;20301;-74
2023/07/17 05:38:23;;;;;;;4.90;4.45;;;25.00;99.90;;;;;;4962099;28;20230;-74
2023/07/17 05:40:58;;;;;;;4.53;4.13;;;25.00;99.90;;;;;;4978397;28;20264;-73
2023/07/17 05:43:25;;;;;;;5.50;4.65;;;25.10;99.90;;;;;;4967569;28;20271;-73
2023/07/17 05:45:52;;;;;;;4.72;4.32;;;25.10;99.90;;;;;;4962839;28;20277;-73
2023/07/17 05:48:19;;;;;;;6.72;4.88;;;25.10;99.90;;;;;;4959123;28;20229;-73
2023/07/17 05:50:46;;;;;;;4.55;4.15;;;25.10;99.90;;;;;;4960485;28;20302;-72
2023/07/17 05:53:13;;;;;;;4.70;4.28;;;25.30;99.90;;;;;;4960073;28;20320;-73
2023/07/17 05:55:40;;;;;;;5.18;4.43;;;25.40;99.90;;;;;;4958411;28;20218;-73
2023/07/17 05:58:08;;;;;;;4.55;4.10;;;25.40;99.90;;;;;;4956550;28;20212;-74
2023/07/17 06:00:35;;;;;;;5.60;4.45;;;25.50;99.90;;;;;;4960218;28;20444;-74
2023/07/17 06:03:02;;;;;;;5.57;4.80;;;25.50;99.90;;;;;;4958106;28;20225;-72
2023/07/17 06:05:29;;;;;;;6.07;4.68;;;25.40;99.90;;;;;;4962613;28;20202;-74
2023/07/17 06:07:56;;;;;;;6.85;4.90;;;25.40;99.90;;;;;;4958124;28;20297;-74
2023/07/17 06:10:23;;;;;;;5.55;5.03;;;25.50;99.90;;;;;;4960974;28;20234;-73
2023/07/17 06:12:50;;;;;;;4.97;4.47;;;25.60;99.90;;;;;;4956034;28;20226;-73
2023/07/17 06:15:18;;;;;;;5.30;4.82;;;25.60;99.90;;;;;;4960434;28;20249;-73
2023/07/17 06:17:45;;;;;;;4.63;4.18;;;25.80;99.90;;;;;;4959482;28;20243;-74
2023/07/17 06:20:12;;;;;;;5.75;5.15;;;25.90;99.90;;;;;;4964100;28;20669;-72
2023/07/17 06:22:39;;;;;;;5.47;4.97;;;26.00;99.90;;;;;;4963846;28;20356;-74
2023/07/17 06:25:07;;;;;;;5.95;5.35;;;26.00;99.90;;;;;;4959326;28;20233;-73
2023/07/17 06:27:33;;;;;;;7.90;5.22;;;26.00;99.90;;;;;;4957674;28;20333;-74
2023/07/17 06:30:00;;;;;;;6.38;5.78;;;26.00;99.90;;;;;;4956648;28;21000;-74
2023/07/17 06:32:29;;;;;;;6.18;5.55;;;26.00;99.90;;;;;;4961937;28;20584;-74
2023/07/17 06:34:56;;;;;;;6.25;5.57;;;25.90;99.90;;;;;;4959169;28;20684;-75
2023/07/17 06:37:22;;;;;;;6.22;5.63;;;26.00;99.90;;;;;;4957626;28;20484;-74
2023/07/17 06:39:49;;;;;;;6.53;5.47;;;26.30;99.90;;;;;;4952527;28;20726;-74
2023/07/17 06:42:16;;;;;;;8.80;5.95;;;26.40;99.90;;;;;;4957330;28;20250;-75
2023/07/17 06:44:43;;;;;;;7.32;5.65;;;26.40;99.90;;;;;;4959025;28;20253;-74
2023/07/17 06:47:10;;;;;;;6.88;5.97;;;26.40;99.90;;;;;;4960690;28;20769;-73
2023/07/17 06:49:38;;;;;;;6.30;5.47;;;26.40;99.90;;;;;;4952894;28;20548;-74
2023/07/17 06:52:06;;;;;;;6.22;5.65;;;26.40;99.90;;;;;;4956206;28;20248;-72
2023/07/17 06:54:33;;;;;;;8.35;6.07;;;26.50;99.90;;;;;;4959548;28;20807;-74
2023/07/17 06:57:00;;;;;;;4.82;4.40;;;26.70;99.90;;;;;;4957122;28;20261;-75
2023/07/17 06:59:28;;;;;;;5.68;5.18;;;26.80;99.90;;;;;;4957334;28;20238;-75
2023/07/17 07:01:56;;;;;;;5.85;5.35;;;27.20;99.90;;;;;;4954249;28;20857;-75
2023/07/17 07:04:23;;;;;;;6.32;5.32;;;27.50;99.90;;;;;;4955868;28;20225;-74
2023/07/17 07:06:51;;;;;;;6.55;5.60;;;27.60;99.90;;;;;;4960215;28;20648;-76
2023/07/17 07:09:18;;;;;;;5.60;5.03;;;27.60;99.90;;;;;;4958020;28;20665;-75
2023/07/17 07:11:45;;;;;;;7.68;5.47;;;27.40;99.90;;;;;;4955284;28;20716;-74
2023/07/17 07:14:12;;;;;;;5.97;5.38;;;27.30;99.90;;;;;;4952134;28;20225;-75
2023/07/17 07:16:39;;;;;;;6.93;5.80;;;27.30;99.90;;;;;;4955859;28;20300;-74
2023/07/17 07:19:06;;;;;;;6.25;5.10;;;27.40;99.90;;;;;;4956566;28;20678;-74
2023/07/17 07:21:33;;;;;;;6.25;5.53;;;27.50;99.90;;;;;;4956935;28;20665;-75
2023/07/17 07:24:03;;;;;;;7.00;5.10;;;27.80;99.90;;;;;;4960343;28;20325;-74
2023/07/17 07:26:31;;;;;;;7.18;5.53;;;28.10;99.90;;;;;;4953314;28;20208;-74
2023/07/17 07:28:58;;;;;;;6.05;5.55;;;28.30;99.90;;;;;;4955109;28;20218;-74
2023/07/17 07:31:25;;;;;;;8.60;5.57;;;28.50;99.90;;;;;;4956263;28;20473;-74
2023/07/17 07:33:52;;;;;;;6.28;5.50;;;28.50;99.90;;;;;;4960301;28;20775;-74
2023/07/17 07:36:19;;;;;;;5.72;5.05;;;28.50;99.90;;;;;;4960384;28;20246;-74
2023/07/17 07:38:45;;;;;;;5.72;4.85;;;28.40;99.90;;;;;;4954210;28;20419;-75
2023/07/17 07:41:14;;;;;;;5.70;5.13;;;28.60;99.90;;;;;;4952146;28;20344;-76
2023/07/17 07:43:41;;;;;;;5.68;4.50;;;28.70;99.90;;;;;;4957174;28;20615;-74
2023/07/17 07:46:09;;;;;;;6.38;5.25;;;28.80;99.90;;;;;;4953094;28;20260;-74
2023/07/17 07:48:36;;;;;;;6.30;5.38;;;28.90;99.90;;;;;;4953589;28;20216;-74
2023/07/17 07:51:03;;;;;;;10.90;5.70;;;29.10;99.90;;;;;;4955924;28;20316;-74
2023/07/17 07:53:30;;;;;;;7.05;5.15;;;29.20;99.90;;;;;;4955099;28;20237;-75
2023/07/17 07:55:57;;;;;;;7.75;5.22;;;29.10;99.90;;;;;;4954968;28;20308;-73
2023/07/17 07:58:26;;;;;;;5.80;5.30;;;28.90;99.90;;;;;;4952659;28;20719;-74
2023/07/17 08:00:54;;;;;;;6.07;5.40;;;28.90;99.90;;;;;;4957066;28;20286;-74
2023/07/17 08:03:21;;;;;;;5.25;4.75;;;29.00;99.90;;;;;;4947415;28;20340;-74
2023/07/17 08:05:48;;;;;;;7.53;5.15;;;29.00;99.90;;;;;;4953998;28;20721;-74
2023/07/17 08:08:14;;;;;;;6.10;5.20;;;29.20;99.90;;;;;;4955848;28;20292;-73
2023/07/17 08:10:41;;;;;;;6.32;4.88;;;29.30;99.90;;;;;;4957399;28;20633;-74
2023/07/17 08:13:08;;;;;;;5.72;5.13;;;29.40;99.90;;;;;;4950647;28;20248;-75
2023/07/17 08:15:37;;;;;;;7.38;5.80;;;29.30;99.90;;;;;;4956529;28;20710;-74
2023/07/17 08:18:04;;;;;;;6.18;5.57;;;29.50;99.90;;;;;;4952490;28;20226;-72
2023/07/17 08:20:31;;;;;;;5.18;4.68;;;29.60;99.90;;;;;;4956780;28;20292;-74
2023/07/17 08:22:57;;;;;;;6.72;5.47;;;29.80;99.90;;;;;;4956573;28;20618;-74
2023/07/17 08:25:24;;;;;;;6.53;5.43;;;30.00;99.90;;;;;;4953203;28;20292;-75
2023/07/17 08:27:52;;;;;;;6.88;5.25;;;30.00;99.90;;;;;;4949704;28;20918;-75
2023/07/17 08:30:19;;;;;;;6.63;4.45;;;30.10;99.90;;;;;;4955268;28;20216;-74
2023/07/17 08:32:47;;;;;;;6.53;4.35;;;30.20;99.90;;;;;;4951334;28;20222;-73
2023/07/17 08:35:14;;;;;;;6.40;4.95;;;30.30;99.90;;;;;;4957141;28;20284;-74
2023/07/17 08:37:41;;;;;;;5.53;4.97;;;30.20;99.90;;;;;;4953219;28;20392;-75
2023/07/17 08:40:10;;;;;;;6.38;5.15;;;30.30;99.90;;;;;;4953576;28;20306;-75
2023/07/17 08:42:39;;;;;;;5.68;4.97;;;30.40;99.90;;;;;;4950115;28;20636;-74
2023/07/17 08:45:09;;;;;;;6.65;4.78;;;30.40;99.90;;;;;;4952471;28;20451;-74
2023/07/17 08:47:37;;;;;;;7.38;4.88;;;30.50;99.90;;;;;;4956627;28;20237;-75
2023/07/17 08:50:08;;;;;;;8.15;5.38;;;30.60;99.90;;;;;;4956619;28;20285;-73
2023/07/17 08:52:35;;;;;;;9.07;5.78;;;30.70;99.90;;;;;;4953257;28;20300;-74
2023/07/17 08:55:02;;;;;;;6.55;5.30;;;30.70;99.90;;;;;;4952464;28;20676;-74
2023/07/17 08:57:31;;;;;;;7.80;5.22;;;30.80;99.90;;;;;;4952453;28;20715;-75
2023/07/17 08:59:58;;;;;;;6.97;6.28;;;30.80;99.90;;;;;;4954146;28;20252;-74
2023/07/17 09:02:26;;;;;;;6.38;5.30;;;30.60;99.90;;;;;;4952779;28;20205;-74
2023/07/17 09:04:53;;;;;;;5.90;5.18;;;30.70;99.90;;;;;;4950090;28;20229;-76
2023/07/17 09:07:21;;;;;;;5.65;5.00;;;30.80;99.90;;;;;;4955462;28;20198;-74
2023/07/17 09:10:08;;;;;;;6.90;4.90;;;31.10;99.90;;;;;;4956019;28;20296;-74
2023/07/17 09:12:35;;;;;;;5.70;5.18;;;31.20;99.90;;;;;;4955394;28;20292;-75
2023/07/17 09:15:02;;;;;;;5.28;4.88;;;31.20;99.90;;;;;;4953597;28;20309;-74
2023/07/17 09:17:29;;;;;;;6.25;4.85;;;31.10;99.90;;;;;;4952753;28;20317;-74
2023/07/17 09:20:08;;;;;;;6.85;4.70;;;31.20;99.90;;;;;;4950602;28;20296;-74
2023/07/17 09:22:38;;;;;;;5.78;5.28;;;31.50;99.90;;;;;;4955724;28;20205;-76
2023/07/17 09:25:05;;;;;;;6.45;5.32;;;31.60;99.90;;;;;;4956902;28;20945;-73
2023/07/17 09:27:44;;;;;;;5.68;5.00;;;31.70;99.90;;;;;;4950172;28;20293;-73
2023/07/17 09:30:12;;;;;;;7.00;5.28;;;31.50;99.90;;;;;;4955594;28;20205;-74
2023/07/17 09:32:39;;;;;;;6.20;4.97;;;31.30;99.90;;;;;;4955885;28;20289;-74
2023/07/17 09:35:08;;;;;;;6.80;4.97;;;31.40;99.90;;;;;;4955247;28;20276;-75
2023/07/17 09:37:37;;;;;;;7.18;5.43;;;31.40;99.90;;;;;;4957972;28;20261;-73
2023/07/17 09:40:09;;;;;;;5.75;4.97;;;31.60;99.90;;;;;;4952903;28;20205;-73
2023/07/17 09:42:36;;;;;;;5.95;5.20;;;31.60;99.90;;;;;;4949264;28;20209;-73
2023/07/17 09:45:04;;;;;;;4.97;4.55;;;31.70;99.90;;;;;;4954824;28;20722;-73
2023/07/17 09:47:31;;;;;;;5.35;4.80;;;31.90;99.90;;;;;;4958659;28;20268;-73
2023/07/17 09:49:59;;;;;;;8.63;5.20;;;32.00;99.90;;;;;;4954980;28;20578;-73
2023/07/17 09:52:28;;;;;;;5.13;4.50;;;32.20;99.90;;;;;;4953498;28;20206;-73
2023/07/17 09:55:00;;;;;;;6.93;5.25;;;32.30;99.90;;;;;;4956169;28;20228;-72
2023/07/17 09:57:28;;;;;;;6.32;4.97;;;32.30;99.90;;;;;;4960777;28;20311;-73
2023/07/17 10:00:04;;;;;;;5.05;4.45;;;32.10;99.90;;;;;;4952967;28;20213;-73
2023/07/17 10:02:36;;;;;;;8.27;4.85;;;32.20;99.90;;;;;;4962250;28;20205;-72
2023/07/17 10:05:06;;;;;;;5.60;4.80;;;32.40;99.90;;;;;;4959001;28;20292;-73
2023/07/17 10:07:36;;;;;;;6.72;5.18;;;32.60;99.90;;;;;;4959428;28;20383;-72
2023/07/17 10:10:06;;;;;;;8.20;5.00;;;32.80;99.90;;;;;;4956471;28;20293;-70
2023/07/17 10:12:34;;;;;;;5.57;4.70;;;33.00;99.90;;;;;;4957329;28;20296;-72
2023/07/17 10:15:02;;;;;;;6.00;4.68;;;32.80;99.90;;;;;;4959635;28;20304;-72
2023/07/17 10:17:32;;;;;;;5.97;4.88;;;32.70;99.90;;;;;;4961779;28;20221;-73
2023/07/17 10:20:00;;;;;;;5.78;4.70;;;32.70;99.90;;;;;;4956611;28;20297;-72
2023/07/17 10:22:34;;;;;;;6.75;5.13;;;32.60;99.90;;;;;;4959221;28;20284;-72
2023/07/17 10:25:24;;;;;;;5.43;4.93;;;32.60;99.90;;;;;;4961214;28;20202;-73
2023/07/17 10:27:57;;;;;;;7.18;5.38;;;32.60;99.90;;;;;;4954851;28;20203;-72
2023/07/17 10:30:25;;;;;;;7.30;5.30;;;32.40;99.90;;;;;;4955441;28;20229;-72
2023/07/17 10:33:07;;;;;;;8.82;5.07;;;32.20;99.90;;;;;;4953976;28;20701;-72
2023/07/17 10:35:47;;;;;;;5.13;4.63;;;32.30;99.90;;;;;;4960411;28;20280;-74
2023/07/17 10:38:16;;;;;;;6.05;5.32;;;32.20;99.90;;;;;;4957416;28;20276;-72
2023/07/17 10:40:43;;;;;;;5.55;4.95;;;32.20;99.90;;;;;;4958765;28;20233;-71
2023/07/17 10:43:19;;;;;;;5.40;4.90;;;32.30;99.90;;;;;;4957085;28;20308;-72
2023/07/17 10:45:48;;;;;;;6.57;5.07;;;32.40;99.90;;;;;;4958248;28;20293;-72
2023/07/17 10:48:15;;;;;;;6.45;5.13;;;32.50;99.90;;;;;;4956691;28;20201;-71
2023/07/17 10:50:49;;;;;;;5.97;5.38;;;32.50;99.90;;;;;;4959272;28;20272;-70
2023/07/17 10:53:16;;;;;;;6.57;5.45;;;32.50;99.90;;;;;;4959701;28;20575;-71
2023/07/17 10:55:43;;;;;;;6.28;4.60;;;32.50;99.90;;;;;;4961141;28;20731;-71
2023/07/17 10:58:10;;;;;;;7.60;4.90;;;32.60;99.90;;;;;;4952782;28;20488;-70
2023/07/17 11:00:41;;;;;;;6.55;5.60;;;32.80;99.90;;;;;;4959702;28;20583;-70
2023/07/17 11:03:08;;;;;;;7.03;5.40;;;32.70;99.90;;;;;;4957420;28;20316;-71
2023/07/17 11:05:38;;;;;;;9.15;5.97;;;32.70;99.90;;;;;;4954199;28;20309;-71
2023/07/17 11:08:06;;;;;;;8.50;5.43;;;32.60;99.90;;;;;;4956303;28;20209;-71
2023/07/17 11:10:33;;;;;;;8.85;5.63;;;32.50;99.90;;;;;;4960116;28;20219;-71
2023/07/17 11:13:02;;;;;;;8.65;6.43;;;32.50;99.90;;;;;;4957476;28;20214;-71
2023/07/17 11:15:31;;;;;;;6.20;5.32;;;32.40;99.90;;;;;;4957830;28;20526;-71
2023/07/17 11:18:00;;;;;;;6.47;5.47;;;32.50;99.90;;;;;;4955746;28;20348;-72
2023/07/17 11:20:27;;;;;;;6.22;5.32;;;32.40;99.90;;;;;;4955386;28;20205;-72
2023/07/17 11:22:54;;;;;;;7.65;5.60;;;32.50;99.90;;;;;;4955347;28;20316;-72
2023/07/17 11:25:23;;;;;;;6.15;5.25;;;32.70;99.90;;;;;;4955184;28;20217;-73
2023/07/17 11:27:50;;;;;;;7.78;5.22;;;32.90;99.90;;;;;;4955653;28;20217;-72
2023/07/17 11:30:20;;;;;;;7.20;5.63;;;32.90;99.90;;;;;;4956903;28;20293;-72
2023/07/17 11:32:56;;;;;;;7.45;6.13;;;33.20;99.90;;;;;;4957227;28;20323;-72
2023/07/17 11:35:25;;;;;;;5.75;5.18;;;33.20;99.90;;;;;;4956622;28;20224;-73
2023/07/17 11:37:51;;;;;;;5.47;4.90;;;33.20;99.90;;;;;;4954968;28;20722;-72
2023/07/17 11:40:18;;;;;;;5.97;5.25;;;33.50;99.90;;;;;;4959104;28;20300;-72
2023/07/17 11:42:56;;;;;;;9.80;5.97;;;33.90;99.90;;;;;;4958588;28;20671;-72
2023/07/17 11:45:27;;;;;;;5.72;5.18;;;34.00;99.90;;;;;;4953018;28;20201;-72
2023/07/17 11:47:55;;;;;;;6.82;5.28;;;33.90;99.90;;;;;;4956648;28;20791;-73
2023/07/17 11:50:26;;;;;;;7.03;5.55;;;33.80;99.90;;;;;;4957695;28;20276;-73
2023/07/17 11:53:04;;;;;;;7.22;5.35;;;33.80;99.90;;;;;;4952535;28;20304;-72
2023/07/17 11:55:35;;;;;;;6.43;5.32;;;33.90;99.90;;;;;;4956247;28;20689;-72
2023/07/17 11:58:02;;;;;;;6.47;5.28;;;34.00;99.90;;;;;;4956232;28;20309;-72
2023/07/17 12:00:29;;;;;;;6.25;5.55;;;34.00;99.90;;;;;;4955710;28;20205;-72
2023/07/17 12:02:56;;;;;;;10.10;5.38;;;33.80;99.90;;;;;;4954203;28;20665;-72
2023/07/17 12:05:25;;;;;;;8.95;5.50;;;33.80;99.90;;;;;;4956338;28;20264;-72
2023/07/17 12:07:54;;;;;;;10.23;6.18;;;33.80;99.90;;;;;;4954816;28;20289;-72
2023/07/17 12:10:21;;;;;;;5.20;4.80;;;33.90;99.90;;;;;;4954981;28;20207;-72
2023/07/17 12:12:48;;;;;;;7.40;5.40;;;34.00;99.90;;;;;;4953552;28;20284;-72
2023/07/17 12:15:15;;;;;;;11.35;5.50;;;34.10;99.90;;;;;;4955685;28;20257;-72
2023/07/17 12:17:41;;;;;;;9.40;4.93;;;34.30;99.90;;;;;;4954470;28;20430;-72
2023/07/17 12:20:09;;;;;;;7.55;5.45;;;34.40;99.90;;;;;;4952105;28;20233;-71
2023/07/17 12:22:37;;;;;;;8.55;5.40;;;34.40;99.90;;;;;;4956611;28;20769;-72
2023/07/17 12:25:05;;;;;;;7.32;5.70;;;34.50;99.90;;;;;;4955180;28;20526;-73
2023/07/17 12:27:32;;;;;;;6.93;5.25;;;34.30;99.90;;;;;;4953922;28;20288;-72
2023/07/17 12:29:59;;;;;;;13.80;5.60;;;34.20;99.90;;;;;;4954760;28;20739;-72
2023/07/17 12:32:26;;;;;;;6.95;5.13;;;34.10;99.90;;;;;;4956811;28;20229;-72
2023/07/17 12:34:53;;;;;;;8.27;5.55;;;34.10;99.90;;;;;;4949624;28;20238;-72
2023/07/17 12:37:20;;;;;;;8.02;5.80;;;34.10;99.90;;;;;;4954405;28;20767;-72
2023/07/17 12:39:48;;;;;;;6.63;4.88;;;34.00;99.90;;;;;;4955264;28;20233;-73
2023/07/17 12:42:17;;;;;;;8.43;5.85;;;34.00;99.90;;;;;;4956626;28;20748;-72
2023/07/17 12:44:44;;;;;;;9.65;5.95;;;34.10;99.90;;;;;;4953872;28;20650;-72
2023/07/17 12:47:11;;;;;;;8.45;5.68;;;34.00;99.90;;;;;;4956287;28;21054;-72
2023/07/17 12:49:38;;;;;;;8.32;5.32;;;34.00;99.90;;;;;;4955978;28;20291;-72